ドバイ の空港の天気 - METARとTAF

ドバイ国際空港 ( OMDB / DXB ) - アラブ首長国連邦 ドバイ
飛行場実況気象(Metar)
観測時間02/18 03:00 GST (02/17 23:00 UTC)
風向・風速西 5m/s
視程10km以上
天気現象
なし
気温21℃
湿度56%
気圧1013hPa
METAROMDB 172300Z 28010KT 220V320 CAVOK 21/12 Q1013 NOSIG
過去の天気等 Google飛行場航空写真 Wunderground天気予報

過去48時間のMETAR

飛行場予報(TAF)
発表時間: 2/17 20:54 GST (2/17 16:54 UTC)
予報対象時間: 17日22時 GST ~ 19日4時 GST
風向・風速西北西 6m/s
視程10km以上
少しの雲 雲底高度 1220m
18日22時 GST ~ 18日24時 GST に徐々に
風向・風速南南西 3m/s
TAF OMDB 171654Z 1718/1900 30012KT 9999 FEW040
BECMG 1818/1820 20005KT